Flight Track Log - Related Links

Times and Time Zones

All times are in EDT time to prevent confusion due to time zone crossing. See the AEE378 flight status page for this flight to view local times or setup timezone preferences in your user account.

Time Position Orientation Groundspeed Altitude Reporting Facility
EDT Latitude Longitude Course Direction KTS MPH feet Rate Location/Type
Wed 12:20:00 PM 37.7164 24.5685 114° Southeast  Level Estimated
Wed 12:21:00 PM 37.6609 24.7239 114° Southeast  Level Estimated
Wed 12:22:00 PM 37.6052 24.8791 114° Southeast  Level Estimated
Wed 12:23:00 PM 37.5493 25.0341 114° Southeast  Level Estimated
Wed 12:23:32 PM 37.7020 24.4860 115° Southeast 350 403 11,000  Level FlightAware ADS-B
Wed 12:24:00 PM 37.4932 25.1888 115° Southeast  Level Estimated
Wed 12:24:07 PM 37.6690 24.5390 128° Southeast 351 404 11,000  Level FlightAware ADS-B
Wed 12:24:52 PM 37.6300 24.6040 127° Southeast 351 404 11,000 -533 Level FlightAware ADS-B
Wed 12:25:37 PM 37.5830 24.6800 128° Southeast 318 366 10,200 -918 Descending FlightAware ADS-B
Wed 12:26:17 PM 37.5460 24.7400 128° Southeast 292 336 9,700 -800 Descending FlightAware ADS-B
Wed 12:26:52 PM 37.5180 24.7860 127° Southeast 292 336 9,200 -1,108 Descending FlightAware ADS-B
Wed 12:27:22 PM 37.4930 24.8260 128° Southeast 287 330 8,500 -1,418 Descending FlightAware ADS-B
Wed 12:27:47 PM 37.4740 24.8570 128° Southeast 287 330 7,900 -764 Descending FlightAware ADS-B
Wed 12:28:17 PM 37.4530 24.8910 128° Southeast 287 330 7,800 -1,084 Descending FlightAware ADS-B
Wed 12:30:00 PM 37.4418 25.1824 93° East  Level Estimated
Wed 12:30:22 PM 37.3880 25.0770 93° East 263 303 5,100  Level FlightAware ADS-B
Wed 12:30:37 PM 37.3830 25.0990 106° East 258 297 4,800 -533 Descending FlightAware ADS-B
Wed 12:31:07 PM 37.3740 25.1400 105° East 258 297 4,700 -1,800 Descending FlightAware ADS-B
Wed 12:31:37 PM 37.3630 25.1850 107° East 259 298 3,000 -3,400 Descending FlightAware ADS-B
Wed 12:34:00 PM 37.4351 25.3481 61° Northeast  Level Estimated
Wed 12:35:00 PM 37.4351 25.3481 130° Southeast  Level Estimated
Wed 12:36:00 PM 37.4351 25.3481 130° Southeast  Level Estimated
Wed 12:37:00 PM 37.4351 25.3481 130° Southeast  Level Estimated
Wed 12:38:00 PM 37.4351 25.3481 130° Southeast  Level Estimated
Wed 12:39:00 PM 37.4351 25.3481 130° Southeast  Level Estimated
Wed 12:40:00 PM 37.4351 25.3481 130° Southeast  Level Estimated

Login

Don't have an account? Register now (free) for customized features, flight alerts, and more!